sensor_id;sensor_type;location;lat;lon;timestamp;P1;durP1;ratioP1;P2;durP2;ratioP2
26040;SDS011;13816;53.628;9.950;2022-10-17T00:02:10;14.77;;;5.87;;
26040;SDS011;13816;53.628;9.950;2022-10-17T00:04:36;9.63;;;4.80;;
26040;SDS011;13816;53.628;9.950;2022-10-17T00:07:03;13.97;;;5.10;;
26040;SDS011;13816;53.628;9.950;2022-10-17T00:09:29;26.47;;;5.97;;
26040;SDS011;13816;53.628;9.950;2022-10-17T00:11:56;12.67;;;4.77;;
26040;SDS011;13816;53.628;9.950;2022-10-17T00:14:22;12.30;;;4.97;;
26040;SDS011;13816;53.628;9.950;2022-10-17T00:16:51;13.23;;;5.30;;
26040;SDS011;13816;53.628;9.950;2022-10-17T00:19:17;13.00;;;6.23;;
26040;SDS011;13816;53.628;9.950;2022-10-17T00:21:43;13.60;;;4.63;;
26040;SDS011;13816;53.628;9.950;2022-10-17T00:24:10;10.10;;;5.07;;
26040;SDS011;13816;53.628;9.950;2022-10-17T00:26:36;11.83;;;5.00;;
26040;SDS011;13816;53.628;9.950;2022-10-17T00:29:02;10.97;;;5.20;;
26040;SDS011;13816;53.628;9.950;2022-10-17T00:31:29;10.50;;;4.80;;
26040;SDS011;13816;53.628;9.950;2022-10-17T00:33:55;12.60;;;5.00;;
26040;SDS011;13816;53.628;9.950;2022-10-17T00:36:23;15.93;;;5.40;;
26040;SDS011;13816;53.628;9.950;2022-10-17T00:38:53;12.07;;;4.47;;
26040;SDS011;13816;53.628;9.950;2022-10-17T00:41:21;9.17;;;4.50;;
26040;SDS011;13816;53.628;9.950;2022-10-17T00:43:53;11.10;;;4.93;;
26040;SDS011;13816;53.628;9.950;2022-10-17T00:46:20;8.97;;;4.40;;
26040;SDS011;13816;53.628;9.950;2022-10-17T00:48:51;8.87;;;4.50;;
26040;SDS011;13816;53.628;9.950;2022-10-17T00:51:19;14.70;;;4.63;;
26040;SDS011;13816;53.628;9.950;2022-10-17T00:53:46;10.33;;;4.73;;
26040;SDS011;13816;53.628;9.950;2022-10-17T00:56:13;7.13;;;4.20;;
26040;SDS011;13816;53.628;9.950;2022-10-17T00:58:42;10.73;;;4.37;;
26040;SDS011;13816;53.628;9.950;2022-10-17T01:01:08;9.13;;;4.37;;
26040;SDS011;13816;53.628;9.950;2022-10-17T01:03:36;7.17;;;4.13;;
26040;SDS011;13816;53.628;9.950;2022-10-17T01:06:02;13.93;;;4.90;;
26040;SDS011;13816;53.628;9.950;2022-10-17T01:13:51;9.00;;;3.60;;
26040;SDS011;13816;53.628;9.950;2022-10-17T01:18:55;9.50;;;3.70;;
26040;SDS011;13816;53.628;9.950;2022-10-17T01:21:30;9.97;;;3.73;;
26040;SDS011;13816;53.628;9.950;2022-10-17T01:24:02;7.60;;;3.67;;
26040;SDS011;13816;53.628;9.950;2022-10-17T01:31:36;6.03;;;3.50;;
26040;SDS011;13816;53.628;9.950;2022-10-17T01:42:21;11.00;;;4.23;;
26040;SDS011;13816;53.628;9.950;2022-10-17T01:45:10;14.07;;;3.87;;
26040;SDS011;13816;53.628;9.950;2022-10-17T01:47:39;8.13;;;3.67;;
26040;SDS011;13816;53.628;9.950;2022-10-17T01:50:11;6.97;;;4.20;;
26040;SDS011;13816;53.628;9.950;2022-10-17T01:53:15;8.90;;;4.00;;
26040;SDS011;13816;53.628;9.950;2022-10-17T01:55:36;5.87;;;2.83;;
26040;SDS011;13816;53.628;9.950;2022-10-17T01:58:48;10.00;;;3.63;;
26040;SDS011;13816;53.628;9.950;2022-10-17T02:00:54;9.70;;;3.40;;
26040;SDS011;13816;53.628;9.950;2022-10-17T02:03:21;10.23;;;3.80;;
26040;SDS011;13816;53.628;9.950;2022-10-17T02:05:48;9.40;;;3.53;;
26040;SDS011;13816;53.628;9.950;2022-10-17T02:08:24;9.60;;;4.27;;
26040;SDS011;13816;53.628;9.950;2022-10-17T02:11:00;10.60;;;3.80;;
26040;SDS011;13816;53.628;9.950;2022-10-17T02:13:47;7.33;;;3.50;;
26040;SDS011;13816;53.628;9.950;2022-10-17T02:21:41;4.90;;;3.10;;
26040;SDS011;13816;53.628;9.950;2022-10-17T02:24:17;7.47;;;3.63;;
26040;SDS011;13816;53.628;9.950;2022-10-17T02:26:54;8.30;;;3.13;;
26040;SDS011;13816;53.628;9.950;2022-10-17T02:29:23;13.20;;;3.57;;
26040;SDS011;13816;53.628;9.950;2022-10-17T02:31:54;12.60;;;3.37;;
26040;SDS011;13816;53.628;9.950;2022-10-17T02:34:31;5.60;;;2.70;;
26040;SDS011;13816;53.628;9.950;2022-10-17T02:36:59;7.23;;;3.10;;
26040;SDS011;13816;53.628;9.950;2022-10-17T02:39:27;6.70;;;3.10;;
26040;SDS011;13816;53.628;9.950;2022-10-17T02:41:56;8.83;;;3.20;;
26040;SDS011;13816;53.628;9.950;2022-10-17T02:44:23;9.73;;;3.67;;
26040;SDS011;13816;53.628;9.950;2022-10-17T02:47:03;5.23;;;3.17;;
26040;SDS011;13816;53.628;9.950;2022-10-17T02:49:35;5.93;;;2.90;;
26040;SDS011;13816;53.628;9.950;2022-10-17T02:52:04;6.80;;;2.93;;
26040;SDS011;13816;53.628;9.950;2022-10-17T02:54:42;10.47;;;3.07;;
26040;SDS011;13816;53.628;9.950;2022-10-17T02:57:16;4.93;;;2.70;;
26040;SDS011;13816;53.628;9.950;2022-10-17T02:59:44;7.77;;;2.93;;
26040;SDS011;13816;53.628;9.950;2022-10-17T03:02:14;9.47;;;2.90;;
26040;SDS011;13816;53.628;9.950;2022-10-17T03:04:44;7.37;;;3.10;;
26040;SDS011;13816;53.628;9.950;2022-10-17T03:07:14;8.77;;;3.03;;
26040;SDS011;13816;53.628;9.950;2022-10-17T03:09:53;6.17;;;3.27;;
26040;SDS011;13816;53.628;9.950;2022-10-17T03:12:22;7.60;;;3.30;;
26040;SDS011;13816;53.628;9.950;2022-10-17T03:14:51;6.50;;;3.67;;
26040;SDS011;13816;53.628;9.950;2022-10-17T03:17:20;4.30;;;3.20;;
26040;SDS011;13816;53.628;9.950;2022-10-17T03:19:51;3.70;;;2.47;;
26040;SDS011;13816;53.628;9.950;2022-10-17T03:22:23;9.73;;;2.67;;
26040;SDS011;13816;53.628;9.950;2022-10-17T03:24:49;6.27;;;2.93;;
26040;SDS011;13816;53.628;9.950;2022-10-17T03:27:23;10.90;;;2.93;;
26040;SDS011;13816;53.628;9.950;2022-10-17T03:29:55;3.57;;;3.07;;
26040;SDS011;13816;53.628;9.950;2022-10-17T03:32:25;8.53;;;3.47;;
26040;SDS011;13816;53.628;9.950;2022-10-17T03:34:52;7.87;;;3.47;;
26040;SDS011;13816;53.628;9.950;2022-10-17T03:37:19;7.67;;;2.70;;
26040;SDS011;13816;53.628;9.950;2022-10-17T03:39:48;4.60;;;2.73;;
26040;SDS011;13816;53.628;9.950;2022-10-17T03:42:23;8.27;;;3.00;;
26040;SDS011;13816;53.628;9.950;2022-10-17T03:44:50;4.63;;;2.80;;
26040;SDS011;13816;53.628;9.950;2022-10-17T03:47:21;6.67;;;2.70;;
26040;SDS011;13816;53.628;9.950;2022-10-17T03:49:51;7.63;;;3.10;;
26040;SDS011;13816;53.628;9.950;2022-10-17T03:52:23;5.60;;;3.20;;
26040;SDS011;13816;53.628;9.950;2022-10-17T03:54:50;3.90;;;2.70;;
26040;SDS011;13816;53.628;9.950;2022-10-17T03:57:17;7.77;;;2.80;;
26040;SDS011;13816;53.628;9.950;2022-10-17T03:59:50;6.30;;;2.60;;
26040;SDS011;13816;53.628;9.950;2022-10-17T04:02:19;4.77;;;3.20;;
26040;SDS011;13816;53.628;9.950;2022-10-17T04:04:59;3.30;;;2.43;;
26040;SDS011;13816;53.628;9.950;2022-10-17T04:07:26;3.53;;;2.50;;
26040;SDS011;13816;53.628;9.950;2022-10-17T04:09:59;6.90;;;2.77;;
26040;SDS011;13816;53.628;9.950;2022-10-17T04:12:36;4.40;;;2.63;;
26040;SDS011;13816;53.628;9.950;2022-10-17T04:15:05;5.33;;;2.57;;
26040;SDS011;13816;53.628;9.950;2022-10-17T04:17:35;5.77;;;2.93;;
26040;SDS011;13816;53.628;9.950;2022-10-17T04:20:02;5.60;;;3.10;;
26040;SDS011;13816;53.628;9.950;2022-10-17T04:22:29;3.97;;;2.67;;
26040;SDS011;13816;53.628;9.950;2022-10-17T04:24:59;7.20;;;3.17;;
26040;SDS011;13816;53.628;9.950;2022-10-17T04:27:31;6.33;;;2.80;;
26040;SDS011;13816;53.628;9.950;2022-10-17T04:29:58;9.03;;;3.37;;
26040;SDS011;13816;53.628;9.950;2022-10-17T04:32:24;8.03;;;3.03;;
26040;SDS011;13816;53.628;9.950;2022-10-17T04:35:17;7.80;;;3.00;;
26040;SDS011;13816;53.628;9.950;2022-10-17T04:37:50;3.20;;;2.70;;
26040;SDS011;13816;53.628;9.950;2022-10-17T04:40:36;3.80;;;2.33;;
26040;SDS011;13816;53.628;9.950;2022-10-17T04:43:10;5.07;;;2.90;;
26040;SDS011;13816;53.628;9.950;2022-10-17T04:45:39;5.03;;;2.87;;
26040;SDS011;13816;53.628;9.950;2022-10-17T04:48:06;5.87;;;2.77;;
26040;SDS011;13816;53.628;9.950;2022-10-17T04:50:32;9.77;;;2.37;;
26040;SDS011;13816;53.628;9.950;2022-10-17T04:53:30;6.23;;;2.60;;
26040;SDS011;13816;53.628;9.950;2022-10-17T04:55:59;4.73;;;2.70;;
26040;SDS011;13816;53.628;9.950;2022-10-17T04:58:27;4.43;;;2.90;;
26040;SDS011;13816;53.628;9.950;2022-10-17T05:00:54;3.90;;;2.70;;
26040;SDS011;13816;53.628;9.950;2022-10-17T05:03:24;3.50;;;2.40;;
26040;SDS011;13816;53.628;9.950;2022-10-17T05:05:51;3.03;;;2.40;;
26040;SDS011;13816;53.628;9.950;2022-10-17T05:08:17;8.53;;;2.83;;
26040;SDS011;13816;53.628;9.950;2022-10-17T05:10:43;7.30;;;3.10;;
26040;SDS011;13816;53.628;9.950;2022-10-17T05:13:13;9.07;;;3.50;;
26040;SDS011;13816;53.628;9.950;2022-10-17T05:15:39;4.20;;;2.77;;
26040;SDS011;13816;53.628;9.950;2022-10-17T05:18:06;8.53;;;3.00;;
26040;SDS011;13816;53.628;9.950;2022-10-17T05:20:33;3.17;;;2.50;;
26040;SDS011;13816;53.628;9.950;2022-10-17T05:23:00;3.73;;;2.67;;
26040;SDS011;13816;53.628;9.950;2022-10-17T05:25:33;3.50;;;3.20;;
26040;SDS011;13816;53.628;9.950;2022-10-17T05:27:59;2.73;;;2.43;;
26040;SDS011;13816;53.628;9.950;2022-10-17T05:30:25;9.43;;;2.70;;
26040;SDS011;13816;53.628;9.950;2022-10-17T05:32:56;6.10;;;3.27;;
26040;SDS011;13816;53.628;9.950;2022-10-17T05:35:23;5.70;;;2.80;;
26040;SDS011;13816;53.628;9.950;2022-10-17T05:37:50;7.50;;;2.80;;
26040;SDS011;13816;53.628;9.950;2022-10-17T05:40:18;5.10;;;2.70;;
26040;SDS011;13816;53.628;9.950;2022-10-17T05:42:48;5.73;;;2.73;;
26040;SDS011;13816;53.628;9.950;2022-10-17T05:45:17;6.43;;;2.57;;
26040;SDS011;13816;53.628;9.950;2022-10-17T05:47:44;6.00;;;2.57;;
26040;SDS011;13816;53.628;9.950;2022-10-17T05:50:10;6.00;;;3.07;;
26040;SDS011;13816;53.628;9.950;2022-10-17T05:52:55;8.83;;;3.53;;
26040;SDS011;13816;53.628;9.950;2022-10-17T05:55:22;3.90;;;2.70;;
26040;SDS011;13816;53.628;9.950;2022-10-17T05:57:50;4.33;;;3.00;;
26040;SDS011;13816;53.628;9.950;2022-10-17T06:00:20;4.63;;;2.60;;
26040;SDS011;13816;53.628;9.950;2022-10-17T06:02:54;6.93;;;3.00;;
26040;SDS011;13816;53.628;9.950;2022-10-17T06:05:21;6.97;;;2.93;;
26040;SDS011;13816;53.628;9.950;2022-10-17T06:07:48;3.80;;;2.90;;
26040;SDS011;13816;53.628;9.950;2022-10-17T06:10:17;4.93;;;3.20;;
26040;SDS011;13816;53.628;9.950;2022-10-17T06:12:44;5.60;;;3.30;;
26040;SDS011;13816;53.628;9.950;2022-10-17T06:15:11;8.70;;;3.70;;
26040;SDS011;13816;53.628;9.950;2022-10-17T06:17:40;3.63;;;3.23;;
26040;SDS011;13816;53.628;9.950;2022-10-17T06:20:06;6.80;;;3.33;;
26040;SDS011;13816;53.628;9.950;2022-10-17T06:22:33;6.07;;;3.33;;
26040;SDS011;13816;53.628;9.950;2022-10-17T06:25:01;12.43;;;3.47;;
26040;SDS011;13816;53.628;9.950;2022-10-17T06:27:28;5.47;;;3.87;;
26040;SDS011;13816;53.628;9.950;2022-10-17T06:29:55;5.00;;;3.60;;
26040;SDS011;13816;53.628;9.950;2022-10-17T06:32:21;5.00;;;3.83;;
26040;SDS011;13816;53.628;9.950;2022-10-17T06:34:49;5.17;;;3.27;;
26040;SDS011;13816;53.628;9.950;2022-10-17T06:37:15;4.33;;;3.70;;
26040;SDS011;13816;53.628;9.950;2022-10-17T06:39:42;7.70;;;3.60;;
26040;SDS011;13816;53.628;9.950;2022-10-17T06:42:11;8.23;;;4.30;;
26040;SDS011;13816;53.628;9.950;2022-10-17T06:44:52;9.47;;;4.83;;
26040;SDS011;13816;53.628;9.950;2022-10-17T06:47:39;8.73;;;4.33;;
26040;SDS011;13816;53.628;9.950;2022-10-17T06:50:27;5.73;;;3.20;;
26040;SDS011;13816;53.628;9.950;2022-10-17T06:53:15;10.73;;;3.90;;
26040;SDS011;13816;53.628;9.950;2022-10-17T06:55:44;8.23;;;3.73;;
26040;SDS011;13816;53.628;9.950;2022-10-17T06:58:17;4.57;;;3.23;;
26040;SDS011;13816;53.628;9.950;2022-10-17T07:01:03;5.77;;;3.20;;
26040;SDS011;13816;53.628;9.950;2022-10-17T07:03:29;4.80;;;3.80;;
26040;SDS011;13816;53.628;9.950;2022-10-17T07:05:56;9.20;;;3.83;;
26040;SDS011;13816;53.628;9.950;2022-10-17T07:08:22;6.20;;;3.70;;
26040;SDS011;13816;53.628;9.950;2022-10-17T07:11:08;4.53;;;3.37;;
26040;SDS011;13816;53.628;9.950;2022-10-17T07:13:35;5.47;;;3.53;;
26040;SDS011;13816;53.628;9.950;2022-10-17T07:16:01;5.20;;;3.97;;
26040;SDS011;13816;53.628;9.950;2022-10-17T07:18:30;6.53;;;3.53;;
26040;SDS011;13816;53.628;9.950;2022-10-17T07:20:57;4.27;;;3.50;;
26040;SDS011;13816;53.628;9.950;2022-10-17T07:23:23;3.30;;;3.00;;
26040;SDS011;13816;53.628;9.950;2022-10-17T07:25:50;3.60;;;3.13;;
26040;SDS011;13816;53.628;9.950;2022-10-17T07:28:16;5.50;;;3.30;;
26040;SDS011;13816;53.628;9.950;2022-10-17T07:30:43;7.20;;;3.40;;
26040;SDS011;13816;53.628;9.950;2022-10-17T07:33:11;5.23;;;3.87;;
26040;SDS011;13816;53.628;9.950;2022-10-17T07:35:37;4.97;;;3.17;;
26040;SDS011;13816;53.628;9.950;2022-10-17T07:38:05;7.33;;;3.10;;
26040;SDS011;13816;53.628;9.950;2022-10-17T07:40:31;5.30;;;3.10;;
26040;SDS011;13816;53.628;9.950;2022-10-17T07:42:58;5.87;;;3.30;;
26040;SDS011;13816;53.628;9.950;2022-10-17T07:45:25;5.83;;;3.70;;
26040;SDS011;13816;53.628;9.950;2022-10-17T07:47:56;6.50;;;3.50;;
26040;SDS011;13816;53.628;9.950;2022-10-17T07:50:22;3.83;;;3.13;;
26040;SDS011;13816;53.628;9.950;2022-10-17T07:52:49;10.57;;;3.40;;
26040;SDS011;13816;53.628;9.950;2022-10-17T07:55:15;9.80;;;4.00;;
26040;SDS011;13816;53.628;9.950;2022-10-17T07:57:41;6.63;;;3.50;;
26040;SDS011;13816;53.628;9.950;2022-10-17T08:00:07;6.40;;;3.87;;
26040;SDS011;13816;53.628;9.950;2022-10-17T08:02:40;9.40;;;4.50;;
26040;SDS011;13816;53.628;9.950;2022-10-17T08:05:06;4.47;;;3.13;;
26040;SDS011;13816;53.628;9.950;2022-10-17T08:07:32;7.43;;;3.93;;
26040;SDS011;13816;53.628;9.950;2022-10-17T08:09:58;4.13;;;3.73;;
26040;SDS011;13816;53.628;9.950;2022-10-17T08:12:25;5.63;;;3.63;;
26040;SDS011;13816;53.628;9.950;2022-10-17T08:14:51;3.40;;;3.10;;
26040;SDS011;13816;53.628;9.950;2022-10-17T08:17:17;7.70;;;3.50;;
26040;SDS011;13816;53.628;9.950;2022-10-17T08:19:43;15.00;;;3.77;;
26040;SDS011;13816;53.628;9.950;2022-10-17T08:22:09;7.40;;;4.60;;
26040;SDS011;13816;53.628;9.950;2022-10-17T08:24:35;10.10;;;4.07;;
26040;SDS011;13816;53.628;9.950;2022-10-17T08:27:02;4.27;;;3.40;;
26040;SDS011;13816;53.628;9.950;2022-10-17T08:29:35;11.03;;;2.93;;
26040;SDS011;13816;53.628;9.950;2022-10-17T08:32:01;8.40;;;3.50;;
26040;SDS011;13816;53.628;9.950;2022-10-17T08:34:27;5.50;;;3.53;;
26040;SDS011;13816;53.628;9.950;2022-10-17T08:36:53;4.63;;;3.17;;
26040;SDS011;13816;53.628;9.950;2022-10-17T08:39:19;4.33;;;2.83;;
26040;SDS011;13816;53.628;9.950;2022-10-17T08:46:45;9.03;;;4.00;;
26040;SDS011;13816;53.628;9.950;2022-10-17T08:49:15;7.57;;;4.00;;
26040;SDS011;13816;53.628;9.950;2022-10-17T08:51:55;5.00;;;3.50;;
26040;SDS011;13816;53.628;9.950;2022-10-17T08:54:26;3.80;;;3.00;;
26040;SDS011;13816;53.628;9.950;2022-10-17T08:56:56;7.30;;;4.10;;
26040;SDS011;13816;53.628;9.950;2022-10-17T08:59:24;9.37;;;4.20;;
26040;SDS011;13816;53.628;9.950;2022-10-17T09:02:02;10.33;;;4.00;;
26040;SDS011;13816;53.628;9.950;2022-10-17T09:20:05;8.63;;;3.17;;
26040;SDS011;13816;53.628;9.950;2022-10-17T09:22:40;6.67;;;3.77;;
26040;SDS011;13816;53.628;9.950;2022-10-17T09:25:09;6.80;;;3.93;;
26040;SDS011;13816;53.628;9.950;2022-10-17T09:27:40;6.07;;;3.30;;
26040;SDS011;13816;53.628;9.950;2022-10-17T09:30:22;6.57;;;2.80;;
26040;SDS011;13816;53.628;9.950;2022-10-17T09:32:50;5.00;;;3.40;;
26040;SDS011;13816;53.628;9.950;2022-10-17T09:35:16;10.50;;;3.37;;
26040;SDS011;13816;53.628;9.950;2022-10-17T09:37:43;6.60;;;3.10;;
26040;SDS011;13816;53.628;9.950;2022-10-17T09:40:26;7.83;;;3.77;;
26040;SDS011;13816;53.628;9.950;2022-10-17T09:42:53;8.43;;;3.50;;
26040;SDS011;13816;53.628;9.950;2022-10-17T09:45:20;12.90;;;3.17;;
26040;SDS011;13816;53.628;9.950;2022-10-17T09:47:55;8.33;;;3.20;;
26040;SDS011;13816;53.628;9.950;2022-10-17T09:50:26;7.60;;;3.33;;
26040;SDS011;13816;53.628;9.950;2022-10-17T09:52:53;9.80;;;3.60;;
26040;SDS011;13816;53.628;9.950;2022-10-17T09:55:42;8.07;;;3.87;;
26040;SDS011;13816;53.628;9.950;2022-10-17T09:58:07;13.60;;;3.43;;
26040;SDS011;13816;53.628;9.950;2022-10-17T10:00:41;7.20;;;3.60;;
26040;SDS011;13816;53.628;9.950;2022-10-17T10:03:20;15.30;;;3.17;;
26040;SDS011;13816;53.628;9.950;2022-10-17T10:06:00;8.43;;;3.50;;
26040;SDS011;13816;53.628;9.950;2022-10-17T10:08:28;6.57;;;3.50;;
26040;SDS011;13816;53.628;9.950;2022-10-17T10:11:03;6.40;;;3.60;;
26040;SDS011;13816;53.628;9.950;2022-10-17T10:13:30;5.77;;;3.63;;
26040;SDS011;13816;53.628;9.950;2022-10-17T10:16:12;5.83;;;3.60;;
26040;SDS011;13816;53.628;9.950;2022-10-17T10:18:39;5.33;;;3.70;;
26040;SDS011;13816;53.628;9.950;2022-10-17T10:23:32;11.60;;;3.37;;
26040;SDS011;13816;53.628;9.950;2022-10-17T10:26:00;4.73;;;3.83;;
26040;SDS011;13816;53.628;9.950;2022-10-17T10:28:28;5.63;;;3.70;;
26040;SDS011;13816;53.628;9.950;2022-10-17T10:30:56;3.73;;;3.20;;
26040;SDS011;13816;53.628;9.950;2022-10-17T10:33:24;7.50;;;4.17;;
26040;SDS011;13816;53.628;9.950;2022-10-17T10:35:53;8.07;;;3.80;;
26040;SDS011;13816;53.628;9.950;2022-10-17T10:38:20;9.10;;;3.50;;
26040;SDS011;13816;53.628;9.950;2022-10-17T10:40:56;11.37;;;3.50;;
26040;SDS011;13816;53.628;9.950;2022-10-17T10:45:55;5.97;;;3.23;;
26040;SDS011;13816;53.628;9.950;2022-10-17T10:48:23;7.00;;;3.93;;
26040;SDS011;13816;53.628;9.950;2022-10-17T10:58:42;11.90;;;4.60;;
26040;SDS011;13816;53.628;9.950;2022-10-17T11:06:33;5.37;;;3.83;;
26040;SDS011;13816;53.628;9.950;2022-10-17T11:11:27;7.83;;;4.80;;
26040;SDS011;13816;53.628;9.950;2022-10-17T11:24:27;9.50;;;3.63;;
26040;SDS011;13816;53.628;9.950;2022-10-17T11:26:56;4.10;;;3.33;;
26040;SDS011;13816;53.628;9.950;2022-10-17T11:29:28;7.00;;;3.30;;
26040;SDS011;13816;53.628;9.950;2022-10-17T11:31:54;6.00;;;3.30;;
26040;SDS011;13816;53.628;9.950;2022-10-17T11:34:25;4.73;;;3.60;;
26040;SDS011;13816;53.628;9.950;2022-10-17T11:36:54;5.93;;;3.42;;
26040;SDS011;13816;53.628;9.950;2022-10-17T11:39:55;9.23;;;3.73;;
26040;SDS011;13816;53.628;9.950;2022-10-17T11:44:54;7.17;;;3.20;;
26040;SDS011;13816;53.628;9.950;2022-10-17T11:47:29;5.23;;;3.90;;
26040;SDS011;13816;53.628;9.950;2022-10-17T11:50:02;5.73;;;3.53;;
26040;SDS011;13816;53.628;9.950;2022-10-17T11:52:37;6.23;;;3.10;;
26040;SDS011;13816;53.628;9.950;2022-10-17T11:55:19;11.60;;;4.00;;
26040;SDS011;13816;53.628;9.950;2022-10-17T12:15:54;8.10;;;4.40;;
26040;SDS011;13816;53.628;9.950;2022-10-17T12:18:25;18.37;;;6.33;;
26040;SDS011;13816;53.628;9.950;2022-10-17T12:21:23;15.63;;;5.70;;
26040;SDS011;13816;53.628;9.950;2022-10-17T12:23:53;11.47;;;5.20;;
26040;SDS011;13816;53.628;9.950;2022-10-17T12:26:27;6.60;;;5.17;;
26040;SDS011;13816;53.628;9.950;2022-10-17T12:28:57;13.33;;;5.90;;
26040;SDS011;13816;53.628;9.950;2022-10-17T12:31:26;11.73;;;5.20;;
26040;SDS011;13816;53.628;9.950;2022-10-17T12:33:59;8.00;;;5.60;;
26040;SDS011;13816;53.628;9.950;2022-10-17T12:42:01;14.40;;;5.93;;
26040;SDS011;13816;53.628;9.950;2022-10-17T12:44:55;7.57;;;5.70;;
26040;SDS011;13816;53.628;9.950;2022-10-17T12:47:41;9.83;;;5.80;;
26040;SDS011;13816;53.628;9.950;2022-10-17T12:53:11;16.80;;;6.70;;
26040;SDS011;13816;53.628;9.950;2022-10-17T12:56:03;9.50;;;6.70;;
26040;SDS011;13816;53.628;9.950;2022-10-17T12:58:31;14.43;;;7.03;;
26040;SDS011;13816;53.628;9.950;2022-10-17T13:04:08;13.70;;;6.63;;
26040;SDS011;13816;53.628;9.950;2022-10-17T13:06:37;12.43;;;7.13;;
26040;SDS011;13816;53.628;9.950;2022-10-17T13:09:15;20.27;;;6.70;;
26040;SDS011;13816;53.628;9.950;2022-10-17T13:12:08;17.00;;;7.13;;
26040;SDS011;13816;53.628;9.950;2022-10-17T13:20:55;15.10;;;8.77;;
26040;SDS011;13816;53.628;9.950;2022-10-17T13:23:23;27.43;;;10.20;;
26040;SDS011;13816;53.628;9.950;2022-10-17T13:28:35;15.40;;;8.60;;
26040;SDS011;13816;53.628;9.950;2022-10-17T13:31:28;12.10;;;7.80;;
26040;SDS011;13816;53.628;9.950;2022-10-17T13:34:20;11.40;;;8.13;;
26040;SDS011;13816;53.628;9.950;2022-10-17T13:37:00;13.03;;;8.20;;
26040;SDS011;13816;53.628;9.950;2022-10-17T13:39:56;11.03;;;7.63;;
26040;SDS011;13816;53.628;9.950;2022-10-17T13:42:29;14.37;;;7.97;;
26040;SDS011;13816;53.628;9.950;2022-10-17T13:44:59;8.93;;;7.73;;
26040;SDS011;13816;53.628;9.950;2022-10-17T13:48:25;16.43;;;9.00;;
26040;SDS011;13816;53.628;9.950;2022-10-17T13:51:36;16.37;;;8.90;;
26040;SDS011;13816;53.628;9.950;2022-10-17T13:54:15;15.53;;;9.30;;
26040;SDS011;13816;53.628;9.950;2022-10-17T13:56:55;12.07;;;9.20;;
26040;SDS011;13816;53.628;9.950;2022-10-17T13:59:44;16.00;;;8.97;;
26040;SDS011;13816;53.628;9.950;2022-10-17T14:08:12;13.60;;;8.90;;
26040;SDS011;13816;53.628;9.950;2022-10-17T14:10:41;13.37;;;9.00;;
26040;SDS011;13816;53.628;9.950;2022-10-17T14:13:15;31.27;;;10.00;;
26040;SDS011;13816;53.628;9.950;2022-10-17T14:15:43;15.20;;;8.97;;
26040;SDS011;13816;53.628;9.950;2022-10-17T14:18:13;13.97;;;8.67;;
26040;SDS011;13816;53.628;9.950;2022-10-17T14:20:40;10.53;;;8.83;;
26040;SDS011;13816;53.628;9.950;2022-10-17T14:28:30;13.67;;;8.30;;
26040;SDS011;13816;53.628;9.950;2022-10-17T14:31:08;15.87;;;9.03;;
26040;SDS011;13816;53.628;9.950;2022-10-17T14:33:35;14.50;;;8.70;;
26040;SDS011;13816;53.628;9.950;2022-10-17T14:36:01;12.33;;;8.67;;
26040;SDS011;13816;53.628;9.950;2022-10-17T14:38:29;14.30;;;8.93;;
26040;SDS011;13816;53.628;9.950;2022-10-17T14:40:59;10.77;;;9.33;;
26040;SDS011;13816;53.628;9.950;2022-10-17T14:43:27;13.37;;;8.57;;
26040;SDS011;13816;53.628;9.950;2022-10-17T14:45:57;13.50;;;10.40;;
26040;SDS011;13816;53.628;9.950;2022-10-17T14:48:24;11.83;;;8.80;;
26040;SDS011;13816;53.628;9.950;2022-10-17T14:53:35;10.83;;;9.57;;
26040;SDS011;13816;53.628;9.950;2022-10-17T14:56:02;14.77;;;9.03;;
26040;SDS011;13816;53.628;9.950;2022-10-17T14:58:31;16.07;;;10.80;;
26040;SDS011;13816;53.628;9.950;2022-10-17T15:00:59;13.30;;;8.90;;
26040;SDS011;13816;53.628;9.950;2022-10-17T15:03:25;14.20;;;9.53;;
26040;SDS011;13816;53.628;9.950;2022-10-17T15:05:54;14.37;;;10.63;;
26040;SDS011;13816;53.628;9.950;2022-10-17T15:08:21;13.77;;;9.57;;
26040;SDS011;13816;53.628;9.950;2022-10-17T15:10:48;15.37;;;10.57;;
26040;SDS011;13816;53.628;9.950;2022-10-17T15:13:15;17.20;;;11.00;;
26040;SDS011;13816;53.628;9.950;2022-10-17T15:15:41;11.20;;;9.97;;
26040;SDS011;13816;53.628;9.950;2022-10-17T15:18:09;25.27;;;11.20;;
26040;SDS011;13816;53.628;9.950;2022-10-17T15:20:36;13.27;;;11.90;;
26040;SDS011;13816;53.628;9.950;2022-10-17T15:23:02;17.10;;;11.50;;
26040;SDS011;13816;53.628;9.950;2022-10-17T15:25:29;15.90;;;12.27;;
26040;SDS011;13816;53.628;9.950;2022-10-17T15:27:55;16.97;;;11.77;;
26040;SDS011;13816;53.628;9.950;2022-10-17T15:30:23;15.70;;;11.60;;
26040;SDS011;13816;53.628;9.950;2022-10-17T15:32:49;20.10;;;12.23;;
26040;SDS011;13816;53.628;9.950;2022-10-17T15:35:16;15.33;;;11.70;;
26040;SDS011;13816;53.628;9.950;2022-10-17T15:37:42;18.53;;;12.97;;
26040;SDS011;13816;53.628;9.950;2022-10-17T15:40:18;14.70;;;13.20;;
26040;SDS011;13816;53.628;9.950;2022-10-17T15:42:45;17.50;;;13.10;;
26040;SDS011;13816;53.628;9.950;2022-10-17T15:45:11;17.10;;;13.87;;
26040;SDS011;13816;53.628;9.950;2022-10-17T15:47:39;18.00;;;13.27;;
26040;SDS011;13816;53.628;9.950;2022-10-17T15:50:06;21.23;;;14.03;;
26040;SDS011;13816;53.628;9.950;2022-10-17T15:52:33;16.10;;;13.67;;
26040;SDS011;13816;53.628;9.950;2022-10-17T15:55:00;18.27;;;12.90;;
26040;SDS011;13816;53.628;9.950;2022-10-17T15:57:26;19.23;;;16.17;;
26040;SDS011;13816;53.628;9.950;2022-10-17T15:59:53;21.47;;;15.20;;
26040;SDS011;13816;53.628;9.950;2022-10-17T16:02:20;17.40;;;14.10;;
26040;SDS011;13816;53.628;9.950;2022-10-17T16:04:47;16.70;;;13.90;;
26040;SDS011;13816;53.628;9.950;2022-10-17T16:07:13;18.53;;;13.70;;
26040;SDS011;13816;53.628;9.950;2022-10-17T16:09:40;28.73;;;14.80;;
26040;SDS011;13816;53.628;9.950;2022-10-17T16:12:09;23.20;;;15.03;;
26040;SDS011;13816;53.628;9.950;2022-10-17T16:14:35;17.17;;;14.23;;
26040;SDS011;13816;53.628;9.950;2022-10-17T16:17:01;16.50;;;13.90;;
26040;SDS011;13816;53.628;9.950;2022-10-17T16:19:27;22.93;;;15.10;;
26040;SDS011;13816;53.628;9.950;2022-10-17T16:21:54;98.33;;;29.90;;
26040;SDS011;13816;53.628;9.950;2022-10-17T16:24:21;41.10;;;18.63;;
26040;SDS011;13816;53.628;9.950;2022-10-17T16:26:47;19.80;;;14.40;;
26040;SDS011;13816;53.628;9.950;2022-10-17T16:29:13;24.00;;;13.50;;
26040;SDS011;13816;53.628;9.950;2022-10-17T16:31:40;14.83;;;12.67;;
26040;SDS011;13816;53.628;9.950;2022-10-17T16:34:07;15.40;;;12.70;;
26040;SDS011;13816;53.628;9.950;2022-10-17T16:36:33;18.57;;;12.20;;
26040;SDS011;13816;53.628;9.950;2022-10-17T16:39:00;16.30;;;11.70;;
26040;SDS011;13816;53.628;9.950;2022-10-17T16:41:27;16.50;;;12.50;;
26040;SDS011;13816;53.628;9.950;2022-10-17T16:43:54;19.47;;;12.50;;
26040;SDS011;13816;53.628;9.950;2022-10-17T16:46:21;18.80;;;13.47;;
26040;SDS011;13816;53.628;9.950;2022-10-17T16:48:47;13.77;;;12.13;;
26040;SDS011;13816;53.628;9.950;2022-10-17T16:51:13;13.67;;;12.27;;
26040;SDS011;13816;53.628;9.950;2022-10-17T16:53:40;23.40;;;14.50;;
26040;SDS011;13816;53.628;9.950;2022-10-17T16:56:10;22.60;;;14.40;;
26040;SDS011;13816;53.628;9.950;2022-10-17T16:58:37;17.83;;;15.93;;
26040;SDS011;13816;53.628;9.950;2022-10-17T17:01:06;18.53;;;13.70;;
26040;SDS011;13816;53.628;9.950;2022-10-17T17:03:36;20.40;;;14.67;;
26040;SDS011;13816;53.628;9.950;2022-10-17T17:06:03;18.60;;;15.17;;
26040;SDS011;13816;53.628;9.950;2022-10-17T17:08:29;22.20;;;15.43;;
26040;SDS011;13816;53.628;9.950;2022-10-17T17:10:56;17.63;;;15.10;;
26040;SDS011;13816;53.628;9.950;2022-10-17T17:13:23;18.63;;;14.73;;
26040;SDS011;13816;53.628;9.950;2022-10-17T17:15:49;20.00;;;14.57;;